01:52 MTB Moetz - Roppen - Pirchet - Stams - Rietz - Moetz
Ort Moetz Datum 21.05.2016 17:23:34
Kategorie MTB
Distanz 47,01 Kilometer Steigung 320,0 Meter Gefälle -321,0 Meter
Gesamt Zeit 01:51:36 Aktiv 01:51:36 Pause 00:00:00
Durchs. Tempo 25,3 km/h Tempo max. 42,5 km/h Tempo min. 11,4 km/h
Kalorien 0 Durchs. HF 120 BPM HF max. 150 BPM
Wetter 27 °C PartClouds Min/Max: 25,0 °C/28,8 °C; Druck: 1014,9 mbar; Rel. Feuchte: 30,6%; Taupunkt: 8,4 °C; Niederschlag: 0,0mm
Ausrüstung Bontrager - Race X Lite MTB
Schwalbe - Nobby Nic vorne
Schwalbe - Racing Ralph hinten
Shimano - HG-XTR 7701
Specialized - Stumpjumper Comp
Notiz Moetz - Roppen - Pirchet - Stams - Rietz - Moetz ... super Wetter, leichter Wind, locker (2,1) ... garmin connect
Splits
Distanz (km) Gesamt Zeit Split Zeit Split Tempo Split Tempo Höhenprofil (m)
1,00 00:03:03 00:03:03 00:03:04 19,6 3,63
2,00 00:05:28 00:02:24 00:02:25 24,8 -2,36
3,00 00:07:46 00:02:17 00:02:18 26,1 8,80
4,00 00:09:47 00:02:01 00:02:01 29,7 -2,36
5,00 00:11:45 00:01:57 00:01:58 30,6 -1,33
6,00 00:13:42 00:01:57 00:01:57 30,7 3,03
7,00 00:15:44 00:02:02 00:02:02 29,4 11,14
8,00 00:19:16 00:03:31 00:03:32 17,0 42,25
9,00 00:21:44 00:02:27 00:02:28 24,3 -1,03
10,00 00:23:30 00:01:46 00:01:46 33,9 -15,08
11,00 00:25:20 00:01:50 00:01:50 32,7 -19,44
12,00 00:27:58 00:02:37 00:02:38 22,8 16,85
13,00 00:30:25 00:02:27 00:02:27 24,5 -5,26
14,00 00:33:01 00:02:35 00:02:35 23,2 9,26
15,00 00:35:13 00:02:12 00:02:12 27,2 -13,45
16,00 00:38:13 00:02:59 00:03:00 20,0 10,55
17,00 00:40:27 00:02:13 00:02:14 26,9 -3,48
18,00 00:42:44 00:02:17 00:02:17 26,3 -10,48
19,00 00:45:53 00:03:09 00:03:09 19,0 7,72
20,00 00:48:53 00:02:59 00:03:00 20,0 -11,75
21,00 00:51:04 00:02:10 00:02:11 27,6 -12,59
22,00 00:53:12 00:02:08 00:02:08 28,1 -2,03
23,00 00:56:08 00:02:55 00:02:56 20,5 2,21
24,00 00:58:20 00:02:12 00:02:13 27,1 -1,63
25,00 01:00:32 00:02:11 00:02:12 27,4 2,00
26,00 01:02:33 00:02:01 00:02:02 29,6 -9,71
27,00 01:04:43 00:02:09 00:02:10 27,7 -5,19
28,00 01:06:45 00:02:01 00:02:02 29,5 -2,07
29,00 01:08:48 00:02:02 00:02:03 29,3 -5,97
30,00 01:10:58 00:02:09 00:02:09 27,8 5,72
31,00 01:14:29 00:03:31 00:03:32 17,0 30,02
32,00 01:16:05 00:01:35 00:01:35 37,8 -28,71
33,00 01:19:35 00:03:30 00:03:30 17,1 31,89
34,00 01:23:05 00:03:30 00:03:31 17,1 18,99
35,00 01:25:15 00:02:09 00:02:09 27,9 -16,31
36,00 01:26:46 00:01:31 00:01:32 39,2 -43,19
37,00 01:28:49 00:02:02 00:02:03 29,3 -11,59
38,00 01:31:20 00:02:30 00:02:30 23,9 -4,45
39,00 01:33:27 00:02:07 00:02:07 28,3 2,18
40,00 01:35:34 00:02:07 00:02:08 28,2 6,30
41,00 01:38:09 00:02:34 00:02:34 23,3 3,50
42,00 01:40:21 00:02:12 00:02:12 27,2 -0,37
43,00 01:42:23 00:02:01 00:02:02 29,5 -0,67
44,00 01:44:26 00:02:03 00:02:03 29,2 2,18
45,00 01:46:39 00:02:13 00:02:14 26,9 0,93
46,00 01:48:52 00:02:12 00:02:13 27,1 1,48
47,00 01:51:16 00:02:23 00:02:24 25,0 9,28
47,10 01:51:36 00:00:19 00:03:12 18,8 0,52